Terminal Aerodrome Forecast
Issued by NWS

Home | Current Version | Previous Version | Graphics & Text | Print | Product List | Glossary On
Versions: 1 2 3 4 5 6 7 8 9 10 11 12 13 14 15 16 17 18 19 20 21 22
698
FTUS43 KICT 182141 AAA
TAFSLN
TAF AMD
KSLN 182141Z 1822/1918 19013G21KT P6SM FEW100
     FM190400 17007KT P6SM OVC015
     FM190700 17006KT 5SM BR BKN008
      AMD NOT SKED=

USA.gov is the U.S. government's official web portal to all federal, state and local government web resources and services.